• Join FlightAware (Why Join?)
  • Login
  • US Flag 
07:52PM EST


 

Airport Tracker/Info


-or-


 

Live Flight TrackerFlight Track Log ✈ N44979 ✈ 02-Sep-2013 ✈ KABY - KRYY

Flight Track Log - Related Links

Times and Time Zones

All times are in EDT time to prevent confusion due to time zone crossing. See the N44979 flight status page for this flight to view local times or setup timezone preferences in your user account.

Time Position Orientation Groundspeed Altitude Reporting Facility
EDT Latitude Longitude Course Direction KTS MPH feet Rate Location/Type
01:07PM 31.5269 -84.2161 350° North 124 143 1,000  Level Jacksonville Center
01:08PM 31.5542 -84.2236 347° North 70 81 1,700 600 Climbing Jacksonville Center
01:09PM 31.6337 -84.2236 346° North  Level FlightAware Approximate
01:09PM 31.5792 -84.2289 350° North 72 83 2,300  Level Jacksonville Center
01:10PM 31.6668 -84.2334 350° North  Level FlightAware Approximate
01:10PM 31.6061 -84.2342 351° North 86 99 3,000  Level Jacksonville Center
01:11PM 31.7001 -84.2400 350° North  Level FlightAware Approximate
01:11PM 31.6311 -84.2394 350° North 92 106 3,500  Level Jacksonville Center
01:12PM 31.6583 -84.2472 346° North 92 106 4,000 540 Climbing Jacksonville Center
01:13PM 31.6811 -84.2500 354° North 87 100 4,600 480 Climbing Jacksonville Center
01:14PM 31.7083 -84.2553 351° North 87 100 5,000 420 Climbing Jacksonville Center
01:15PM 31.7333 -84.2606 350° North 87 100 5,500 480 Climbing Jacksonville Center
01:16PM 31.7561 -84.2681 344° North 87 100 6,000 240 Climbing Jacksonville Center
01:17PM 31.7872 -84.2758 348° North 93 107 6,000  Level Jacksonville Center
01:20PM 31.8667 -84.3000 346° North 113 130 6,000 -60 Level Atlanta TRACON
01:21PM 31.8833 -84.3167 320° Northwest 114 131 5,900  Descending Atlanta TRACON
01:21PM 31.9167 -84.3333 337° Northwest 111 128 6,100  Climbing Atlanta TRACON
01:23PM 31.9500 -84.3500 337° Northwest 112 129 6,000 -120 Descending Atlanta TRACON
01:24PM 31.9667 -84.3667 320° Northwest 110 127 5,900  Descending Atlanta TRACON
01:25PM 32.0000 -84.3833 337° Northwest 105 121 6,000  Climbing Atlanta TRACON
01:26PM 32.0333 -84.4000 337° Northwest 113 130 5,900  Descending Atlanta TRACON
01:26PM 32.0500 -84.4000 360° North 118 136 6,000  Climbing Atlanta TRACON
01:27PM 32.0833 -84.4167 337° Northwest 116 133 5,900 -60 Descending Atlanta TRACON
01:29PM 32.1167 -84.4333 337° Northwest 107 123 5,900  Level Atlanta TRACON
01:30PM 32.1333 -84.4500 320° Northwest 107 123 5,900  Level Atlanta TRACON
01:31PM 32.1667 -84.4667 337° Northwest 116 133 5,900  Level Atlanta TRACON
01:32PM 32.2000 -84.4833 337° Northwest 113 130 5,900  Level Atlanta TRACON
01:33PM 32.2167 -84.5000 320° Northwest 111 128 5,900  Level Atlanta TRACON
01:34PM 32.2500 -84.5167 337° Northwest 113 130 5,900  Level Atlanta TRACON
01:35PM 32.2833 -84.5333 337° Northwest 111 128 5,900  Level Atlanta TRACON
01:36PM 32.3000 -84.5500 320° Northwest 109 125 5,900  Level Atlanta TRACON
01:37PM 32.3333 -84.5667 337° Northwest 109 125 5,900  Level Atlanta TRACON
01:38PM 32.3667 -84.5833 337° Northwest 111 128 5,900  Level Atlanta TRACON
01:39PM 32.3833 -84.6000 320° Northwest 108 124 5,900  Level Atlanta TRACON
01:39PM 32.4167 -84.6167 337° Northwest 113 130 5,900  Level Atlanta TRACON
01:41PM 32.4500 -84.6167 360° North 112 129 5,900  Level Atlanta TRACON
01:42PM 32.4833 -84.6000 23° Northeast 115 132 5,900  Level Atlanta TRACON
01:43PM 32.5167 -84.6000 360° North 117 135 5,900  Level Atlanta TRACON
01:44PM 32.5500 -84.6000 360° North 122 140 5,900  Level Atlanta TRACON
01:45PM 32.5833 -84.6000 360° North 117 135 5,900  Level Atlanta TRACON
01:46PM 32.6000 -84.5833 40° Northeast 118 136 5,900  Level Atlanta TRACON
01:46PM 32.6333 -84.5833 360° North 121 139 5,900  Level Atlanta TRACON
01:47PM 32.6667 -84.5833 360° North 118 136 5,900  Level Atlanta TRACON
01:48PM 32.7000 -84.5667 23° Northeast 119 137 6,000  Climbing Atlanta TRACON
01:49PM 32.7333 -84.5667 360° North 123 142 5,900 -60 Descending Atlanta TRACON
01:50PM 32.7667 -84.5667 360° North 125 144 5,900  Level Atlanta TRACON
01:51PM 32.8000 -84.5500 23° Northeast 120 138 5,900  Level Atlanta TRACON
01:52PM 32.8333 -84.5500 360° North 123 142 5,900  Level Atlanta TRACON
01:53PM 32.8667 -84.5500 360° North 122 140 5,900  Level Atlanta TRACON
01:54PM 32.9000 -84.5500 360° North 120 138 5,900  Level Atlanta TRACON
01:55PM 32.9333 -84.5333 23° Northeast 120 138 5,900  Level Atlanta TRACON
01:56PM 32.9667 -84.5333 360° North 124 143 5,900  Level Atlanta TRACON
01:57PM 33.0000 -84.5333 360° North 121 139 5,900  Level Atlanta TRACON
01:58PM 33.0333 -84.5167 23° Northeast 122 140 5,900  Level Atlanta TRACON
01:59PM 33.0667 -84.5167 360° North 121 139 6,000 -180 Climbing Atlanta TRACON
02:00PM 33.1000 -84.5167 360° North 119 137 5,600 -540 Descending Atlanta TRACON
02:01PM 33.1333 -84.5000 23° Northeast 118 136 5,000 -300 Descending Atlanta TRACON
02:03PM 33.1667 -84.5000 360° North 120 138 5,000  Level Atlanta TRACON
02:04PM 33.2000 -84.4833 23° Northeast 122 140 5,000  Level Atlanta TRACON
02:05PM 33.2333 -84.4833 360° North 118 136 5,000  Level Atlanta TRACON
02:06PM 33.2667 -84.4833 360° North 117 135 5,000  Level Atlanta TRACON
02:07PM 33.3000 -84.4667 23° Northeast 116 133 5,000  Level Atlanta TRACON
02:08PM 33.3333 -84.4667 360° North 118 136 5,000  Level Atlanta TRACON
02:09PM 33.3667 -84.4667 360° North 122 140 5,100  Climbing Atlanta TRACON
02:09PM 33.4000 -84.4500 23° Northeast 123 142 5,000 -60 Descending Atlanta TRACON
02:11PM 33.4333 -84.4500 360° North 125 144 5,000  Level Atlanta TRACON
02:12PM 33.4667 -84.4333 23° Northeast 119 137 5,000  Level Atlanta TRACON
02:13PM 33.5000 -84.4333 360° North 117 135 5,000  Level Atlanta TRACON
02:14PM 33.5333 -84.4333 360° North 115 132 5,000  Level Atlanta TRACON
02:15PM 33.5667 -84.4167 23° Northeast 111 128 5,000  Level Atlanta TRACON
02:16PM 33.6000 -84.4167 360° North 110 127 5,000  Level Atlanta TRACON
02:16PM 33.6167 -84.4167 360° North 117 135 5,000  Level Atlanta TRACON
02:17PM 33.6500 -84.4000 23° Northeast 111 128 5,000  Level Atlanta TRACON
02:19PM 33.7167 -84.4000 360° North 107 123 5,000  Level Atlanta TRACON
02:20PM 33.7333 -84.3833 40° Northeast 104 120 5,000  Level Atlanta TRACON
02:21PM 33.7667 -84.3833 360° North 106 122 5,000 -360 Level Atlanta TRACON
02:22PM 33.8000 -84.3833 360° North 107 123 4,300 -480 Descending Atlanta TRACON
02:24PM 33.8333 -84.3667 23° Northeast 107 123 4,100 -120 Descending Atlanta TRACON
02:24PM 33.8500 -84.3667 360° North 109 125 4,100 -120 Level Atlanta TRACON
02:25PM 33.8833 -84.3667 360° North 107 123 3,900 -420 Descending Atlanta TRACON
02:26PM 33.9167 -84.3667 360° North 103 119 3,300 -420 Descending Atlanta TRACON
02:28PM 33.9500 -84.3667 360° North 107 123 3,100 -120 Descending Atlanta TRACON
02:28PM 33.9833 -84.3667 360° North 104 120 3,100 -60 Level Atlanta TRACON
02:29PM 34.0000 -84.3833 320° Northwest 98 113 3,000 -60 Descending Atlanta TRACON
02:30PM 34.0000 -84.4000 270° West 97 112 3,000  Level Atlanta TRACON
02:31PM 34.0167 -84.4333 301° West 99 114 3,000  Level Atlanta TRACON
02:32PM 34.0167 -84.4667 270° West 98 113 3,000 -300 Level Atlanta TRACON
02:33PM 34.0167 -84.5000 270° West 103 119 2,500 -540 Descending Atlanta TRACON
02:34PM 34.0167 -84.5333 270° West 92 106 2,000 -480 Descending Atlanta TRACON
02:35PM 34.0167 -84.5667 270° West 98 113 1,600 -420 Descending Atlanta TRACON
02:37PM 34.0000 -84.5833 90° East  Level FlightAware Approximate